Time;durP1;ratioP1;P1;durP2;ratioP2;P2;SDS_P1;SDS_P2;PMS_P1;PMS_P2;Temp;Humidity;BMP_temperature;BMP_pressure;BME280_temperature;BME280_humidity;BME280_pressure;Samples;Min_cycle;Max_cycle;Signal;HPM_P1;HPM_P2
2022/10/12 00:01:04;;;;;;;8.55;4.20;;;;;;;8.23;100.00;102530.72;2607731;36;20026;-54
2022/10/12 00:03:35;;;;;;;9.63;4.72;;;;;;;8.30;100.00;102536.63;2612639;36;20069;-55
2022/10/12 00:06:06;;;;;;;8.65;4.53;;;;;;;8.26;100.00;102540.44;2612624;36;20026;-55
2022/10/12 00:08:34;;;;;;;7.72;4.35;;;;;;;8.32;100.00;102539.22;2610588;36;20026;-52
2022/10/12 00:11:03;;;;;;;8.30;4.15;;;;;;;8.25;100.00;102536.00;2613364;36;20459;-53
2022/10/12 00:13:32;;;;;;;7.53;3.85;;;;;;;8.28;100.00;102530.50;2612877;36;20026;-55
2022/10/12 00:16:04;;;;;;;6.57;3.20;;;;;;;8.36;100.00;102533.66;2613135;36;20022;-55
2022/10/12 00:18:36;;;;;;;8.27;3.63;;;;;;;8.22;100.00;102530.81;2609970;36;20038;-51
2022/10/12 00:21:06;;;;;;;8.15;3.28;;;;;;;8.16;100.00;102523.94;2610662;36;20316;-54
2022/10/12 00:23:38;;;;;;;7.85;3.88;;;;;;;8.06;100.00;102525.38;2613190;36;20022;-55
2022/10/12 00:26:08;;;;;;;13.38;4.00;;;;;;;7.96;100.00;102529.47;2612264;36;20439;-56
2022/10/12 00:28:37;;;;;;;11.32;3.65;;;;;;;8.04;100.00;102535.31;2611558;36;20041;-56
2022/10/12 00:31:09;;;;;;;12.73;4.55;;;;;;;7.93;100.00;102527.78;2612927;36;20423;-57
2022/10/12 00:33:40;;;;;;;10.77;3.72;;;;;;;7.88;100.00;102529.88;2613465;36;20026;-53
2022/10/12 00:36:19;;;;;;;8.48;4.10;;;;;;;7.83;100.00;102537.25;2611729;36;20054;-52
2022/10/12 00:38:48;;;;;;;5.65;3.72;;;;;;;7.85;100.00;102530.03;2611357;36;20033;-58
2022/10/12 00:41:19;;;;;;;7.22;4.78;;;;;;;7.81;100.00;102533.78;2612288;36;20030;-54
2022/10/12 00:43:49;;;;;;;8.90;3.95;;;;;;;7.87;100.00;102530.78;2612974;36;20525;-54
2022/10/12 00:46:22;;;;;;;7.68;3.45;;;;;;;7.83;100.00;102526.53;2612260;36;20551;-57
2022/10/12 00:48:58;;;;;;;6.25;3.15;;;;;;;7.83;100.00;102523.84;2613040;36;20061;-55
2022/10/12 00:51:27;;;;;;;8.02;3.22;;;;;;;7.90;100.00;102530.63;2613350;36;20029;-53
2022/10/12 00:54:00;;;;;;;6.47;3.50;;;;;;;7.89;100.00;102521.75;2611499;36;20055;-53
2022/10/12 00:56:31;;;;;;;5.93;2.85;;;;;;;7.86;100.00;102521.00;2613954;36;20038;-53
2022/10/12 00:59:03;;;;;;;6.05;3.22;;;;;;;7.85;100.00;102513.94;2612782;36;20042;-55
2022/10/12 01:01:36;;;;;;;5.90;2.88;;;;;;;7.85;100.00;102511.25;2611440;36;20038;-55
2022/10/12 01:04:07;;;;;;;5.97;2.85;;;;;;;7.87;100.00;102520.06;2607926;36;20061;-53
2022/10/12 01:06:36;;;;;;;9.10;2.85;;;;;;;7.76;100.00;102512.59;2612026;36;20451;-53
2022/10/12 01:09:05;;;;;;;4.13;2.83;;;;;;;7.74;100.00;102518.97;2612409;36;20035;-53
2022/10/12 01:11:34;;;;;;;5.90;2.33;;;;;;;7.67;100.00;102511.22;2613371;36;20046;-54
2022/10/12 01:14:02;;;;;;;5.95;2.55;;;;;;;7.72;100.00;102511.84;2611189;36;20042;-54
2022/10/12 01:16:36;;;;;;;4.33;2.40;;;;;;;7.75;100.00;102513.53;2611879;36;20038;-55
2022/10/12 01:19:20;;;;;;;5.45;2.40;;;;;;;7.64;100.00;102508.72;2611739;36;20058;-55
2022/10/12 01:21:56;;;;;;;3.85;2.50;;;;;;;7.53;100.00;102519.06;2613861;36;20030;-57
2022/10/12 01:24:40;;;;;;;4.88;2.45;;;;;;;7.58;100.00;102510.81;2611217;36;20535;-52
2022/10/12 01:27:39;;;;;;;3.63;1.90;;;;;;;7.62;100.00;102505.22;2611073;36;20073;-57
2022/10/12 01:30:20;;;;;;;6.13;2.30;;;;;;;7.57;100.00;102509.06;2612261;36;20035;-54
2022/10/12 01:33:11;;;;;;;6.22;2.83;;;;;;;7.58;100.00;102506.31;2612696;36;20022;-52
2022/10/12 01:35:45;;;;;;;4.78;2.28;;;;;;;7.55;100.00;102501.09;2609309;36;20570;-54
2022/10/12 01:38:25;;;;;;;5.10;2.13;;;;;;;7.50;100.00;102505.84;2612085;36;20053;-52
2022/10/12 01:41:02;;;;;;;4.63;2.13;;;;;;;7.53;100.00;102508.34;2613182;31;20033;-55
2022/10/12 01:43:35;;;;;;;4.95;2.33;;;;;;;7.43;100.00;102499.03;2612557;36;20459;-53
2022/10/12 01:46:41;;;;;;;7.25;2.35;;;;;;;7.37;100.00;102503.75;2609990;36;20046;-56
2022/10/12 01:49:11;;;;;;;6.20;2.28;;;;;;;7.41;100.00;102506.28;2611339;31;20038;-52
2022/10/12 01:51:52;;;;;;;5.65;2.35;;;;;;;7.35;100.00;102497.59;2612445;36;20563;-54
2022/10/12 01:54:28;;;;;;;6.03;2.38;;;;;;;7.31;100.00;102498.69;2611780;36;20031;-57
2022/10/12 01:57:04;;;;;;;5.47;2.05;;;;;;;7.36;100.00;102504.69;2612347;31;20546;-56
2022/10/12 01:59:44;;;;;;;5.47;2.20;;;;;;;7.44;100.00;102498.09;2612559;36;20027;-56
2022/10/12 02:02:19;;;;;;;9.23;2.03;;;;;;;7.49;100.00;102499.63;2611733;31;20030;-49
2022/10/12 02:04:51;;;;;;;4.22;2.05;;;;;;;7.64;100.00;102492.63;2615442;36;20031;-54
2022/10/12 02:07:28;;;;;;;4.05;2.22;;;;;;;7.70;100.00;102492.31;2615512;36;20057;-54
2022/10/12 02:10:00;;;;;;;5.53;2.40;;;;;;;7.62;100.00;102491.81;2616254;36;20034;-56
2022/10/12 02:12:31;;;;;;;4.45;1.95;;;;;;;7.63;100.00;102490.03;2617155;31;20034;-52
2022/10/12 02:15:04;;;;;;;8.45;2.88;;;;;;;7.61;100.00;102482.06;2614987;36;20037;-56
2022/10/12 02:17:37;;;;;;;6.20;2.58;;;;;;;7.58;100.00;102476.81;2615617;36;20039;-54
2022/10/12 02:20:07;;;;;;;4.45;2.35;;;;;;;7.56;100.00;102480.56;2615992;36;20041;-53
2022/10/12 02:22:39;;;;;;;2.78;1.90;;;;;;;7.54;100.00;102483.31;2615974;36;20038;-51
2022/10/12 02:25:10;;;;;;;4.40;2.10;;;;;;;7.54;100.00;102478.81;2615681;36;20026;-57
2022/10/12 02:27:43;;;;;;;5.15;2.38;;;;;;;7.53;100.00;102477.06;2615962;31;20154;-53
2022/10/12 02:30:13;;;;;;;7.90;2.30;;;;;;;7.60;100.00;102477.63;2614903;31;20038;-52
2022/10/12 02:32:54;;;;;;;7.53;2.47;;;;;;;7.62;100.00;102472.19;2616996;31;20022;-55
2022/10/12 02:35:27;;;;;;;6.97;2.60;;;;;;;7.53;100.00;102470.84;2616084;36;20027;-52
2022/10/12 02:38:01;;;;;;;5.32;2.15;;;;;;;7.60;100.00;102464.25;2616285;36;20087;-55
2022/10/12 02:40:36;;;;;;;4.70;2.10;;;;;;;7.59;100.00;102454.47;2615997;36;20046;-52
2022/10/12 02:43:11;;;;;;;6.97;2.58;;;;;;;7.66;100.00;102465.75;2615444;31;20451;-56
2022/10/12 02:45:41;;;;;;;5.13;2.50;;;;;;;7.66;100.00;102461.25;2615340;36;20041;-54
2022/10/12 02:48:15;;;;;;;5.72;2.15;;;;;;;7.65;100.00;102445.25;2616266;36;20035;-56
2022/10/12 02:50:44;;;;;;;7.55;2.40;;;;;;;7.60;100.00;102455.34;2616090;36;20038;-54
2022/10/12 02:53:14;;;;;;;6.25;2.85;;;;;;;7.67;100.00;102451.38;2615301;36;20030;-52
2022/10/12 02:55:49;;;;;;;6.03;2.97;;;;;;;7.74;100.00;102451.94;2614890;36;20046;-53
2022/10/12 02:58:18;;;;;;;9.05;2.75;;;;;;;7.77;100.00;102449.13;2616167;31;20034;-57
2022/10/12 03:00:47;;;;;;;6.55;2.38;;;;;;;7.89;100.00;102456.50;2615565;36;20439;-52
2022/10/12 03:03:18;;;;;;;6.13;2.70;;;;;;;7.88;100.00;102444.06;2614353;36;20042;-53
2022/10/12 03:05:47;;;;;;;3.70;2.70;;;;;;;7.85;100.00;102444.22;2615673;36;20065;-55
2022/10/12 03:08:16;;;;;;;3.97;2.47;;;;;;;7.79;100.00;102441.84;2614943;36;20023;-52
2022/10/12 03:10:44;;;;;;;6.72;2.67;;;;;;;7.73;100.00;102445.72;2615656;36;20027;-54
2022/10/12 03:13:12;;;;;;;5.38;3.10;;;;;;;7.71;100.00;102445.81;2616062;36;20022;-54
2022/10/12 03:15:41;;;;;;;5.45;2.70;;;;;;;7.66;100.00;102445.16;2615109;36;20045;-54
2022/10/12 03:18:09;;;;;;;5.20;2.97;;;;;;;7.52;100.00;102442.31;2615825;36;20029;-55
2022/10/12 03:20:40;;;;;;;5.20;2.97;;;;;;;7.46;100.00;102442.63;2615238;31;20550;-52
2022/10/12 03:23:09;;;;;;;7.47;2.80;;;;;;;7.51;100.00;102435.25;2616099;36;20062;-54
2022/10/12 03:25:37;;;;;;;4.72;2.55;;;;;;;7.55;100.00;102434.13;2615695;36;20030;-53
2022/10/12 03:28:05;;;;;;;5.55;2.90;;;;;;;7.63;100.00;102433.75;2616039;36;20574;-55
2022/10/12 03:30:33;;;;;;;4.82;2.55;;;;;;;7.57;100.00;102434.94;2615410;36;20038;-56
2022/10/12 03:33:02;;;;;;;7.72;2.78;;;;;;;7.48;100.00;102430.00;2616091;36;20042;-56
2022/10/12 03:35:30;;;;;;;6.07;2.60;;;;;;;7.37;100.00;102428.72;2598204;36;20046;-53
2022/10/12 03:38:01;;;;;;;5.97;2.65;;;;;;;7.29;100.00;102430.94;2615640;36;20428;-53
2022/10/12 03:40:29;;;;;;;7.75;2.80;;;;;;;7.28;100.00;102434.56;2615727;36;20042;-56
2022/10/12 03:42:58;;;;;;;7.47;2.90;;;;;;;7.24;100.00;102427.63;2616225;36;20138;-55
2022/10/12 03:45:26;;;;;;;6.13;2.90;;;;;;;7.23;100.00;102427.69;2615257;36;20023;-54
2022/10/12 03:47:54;;;;;;;5.72;2.90;;;;;;;7.25;100.00;102429.34;2613311;36;20041;-54
2022/10/12 03:50:23;;;;;;;6.18;2.67;;;;;;;7.19;100.00;102421.63;2611467;36;20034;-55
2022/10/12 03:52:51;;;;;;;8.07;2.88;;;;;;;7.05;100.00;102424.13;2615752;36;20058;-56
2022/10/12 03:55:22;;;;;;;4.93;2.33;;;;;;;6.96;100.00;102422.75;2611262;36;20073;-54
2022/10/12 03:57:50;;;;;;;6.80;2.70;;;;;;;6.91;100.00;102425.66;2611708;36;20363;-53
2022/10/12 04:00:19;;;;;;;6.63;2.90;;;;;;;6.88;100.00;102420.44;2610817;36;20656;-56
2022/10/12 04:02:47;;;;;;;12.38;3.80;;;;;;;6.82;100.00;102426.09;2608707;36;20043;-57
2022/10/12 04:05:16;;;;;;;7.50;3.50;;;;;;;6.84;100.00;102427.75;2607283;36;20038;-53
2022/10/12 04:07:44;;;;;;;6.97;3.07;;;;;;;6.80;100.00;102427.97;2606754;36;20042;-53
2022/10/12 04:10:12;;;;;;;6.60;3.35;;;;;;;6.75;100.00;102422.84;2607772;36;20547;-57
2022/10/12 04:12:47;;;;;;;8.80;3.17;;;;;;;6.67;100.00;102427.69;2606921;31;20034;-56
2022/10/12 04:15:16;;;;;;;5.38;2.92;;;;;;;6.60;100.00;102427.09;2607600;36;20057;-53
2022/10/12 04:17:45;;;;;;;5.53;2.88;;;;;;;6.64;100.00;102439.41;2608077;36;20065;-58
2022/10/12 04:20:14;;;;;;;7.57;2.80;;;;;;;6.54;100.00;102435.41;2606519;36;20069;-53
2022/10/12 04:22:43;;;;;;;5.43;2.60;;;;;;;6.51;100.00;102426.66;2606921;36;20126;-52
2022/10/12 04:25:13;;;;;;;5.22;3.08;;;;;;;6.45;100.00;102425.16;2608889;36;20069;-50
2022/10/12 04:27:41;;;;;;;5.25;2.60;;;;;;;6.42;100.00;102425.25;2607671;36;20035;-52
2022/10/12 04:30:13;;;;;;;12.43;3.72;;;;;;;6.38;100.00;102421.03;2606547;31;20038;-57
2022/10/12 04:32:42;;;;;;;6.47;3.33;;;;;;;6.40;100.00;102421.81;2606605;36;20049;-53
2022/10/12 04:35:10;;;;;;;9.88;4.05;;;;;;;6.33;100.00;102418.56;2606413;36;20045;-53
2022/10/12 04:37:39;;;;;;;9.73;3.28;;;;;;;6.32;100.00;102423.03;2608905;36;20432;-54
2022/10/12 04:40:09;;;;;;;8.65;3.35;;;;;;;6.34;100.00;102422.09;2609004;36;20027;-52
2022/10/12 04:42:37;;;;;;;8.35;3.38;;;;;;;6.44;100.00;102423.41;2612334;36;20034;-56
2022/10/12 04:45:07;;;;;;;7.47;3.25;;;;;;;6.44;100.00;102420.72;2611597;36;20352;-53
2022/10/12 04:47:38;;;;;;;8.32;3.20;;;;;;;6.41;100.00;102419.06;2613055;36;20575;-56
2022/10/12 04:50:06;;;;;;;5.38;2.88;;;;;;;6.36;100.00;102429.13;2612021;36;20420;-54
2022/10/12 04:52:35;;;;;;;8.30;3.60;;;;;;;6.34;100.00;102419.41;2612606;36;20023;-57
2022/10/12 04:55:03;;;;;;;8.57;3.85;;;;;;;6.31;100.00;102426.63;2610632;36;20567;-54
2022/10/12 04:57:31;;;;;;;10.30;3.42;;;;;;;6.25;100.00;102415.34;2598590;31;20069;-55
2022/10/12 05:00:00;;;;;;;5.28;3.03;;;;;;;6.21;100.00;102422.63;2606331;36;20073;-55
2022/10/12 05:02:28;;;;;;;9.40;3.03;;;;;;;6.17;100.00;102418.38;2609405;31;20039;-54
2022/10/12 05:04:59;;;;;;;8.65;3.38;;;;;;;6.07;100.00;102417.91;2607605;36;20046;-49
2022/10/12 05:07:28;;;;;;;5.60;2.90;;;;;;;6.01;100.00;102426.22;2607806;36;20069;-52
2022/10/12 05:09:56;;;;;;;4.57;2.80;;;;;;;6.04;100.00;102427.88;2606384;36;20034;-53
2022/10/12 05:12:24;;;;;;;10.40;2.78;;;;;;;6.01;100.00;102425.31;2593917;36;20046;-55
2022/10/12 05:14:52;;;;;;;9.02;3.40;;;;;;;6.03;100.00;102415.44;2603000;36;20042;-52
2022/10/12 05:17:21;;;;;;;8.25;3.20;;;;;;;6.07;100.00;102409.03;2611128;36;20039;-56
2022/10/12 05:19:49;;;;;;;7.18;2.72;;;;;;;6.09;100.00;102415.19;2612212;36;20531;-56
2022/10/12 05:22:20;;;;;;;15.75;3.40;;;;;;;6.07;100.00;102403.69;2612614;36;20045;-53
2022/10/12 05:24:48;;;;;;;8.77;3.35;;;;;;;6.09;100.00;102407.16;2611252;36;20030;-52
2022/10/12 05:27:16;;;;;;;8.65;4.05;;;;;;;6.12;100.00;102409.69;2612134;36;20023;-52
2022/10/12 05:29:45;;;;;;;8.13;3.15;;;;;;;6.10;100.00;102407.09;2612130;31;20069;-57
2022/10/12 05:32:13;;;;;;;6.30;2.65;;;;;;;6.04;100.00;102411.84;2610897;36;20037;-52
2022/10/12 05:34:42;;;;;;;3.88;2.35;;;;;;;6.01;100.00;102406.63;2612355;36;20038;-55
2022/10/12 05:37:11;;;;;;;8.68;2.88;;;;;;;6.01;100.00;102410.19;2613418;31;20030;-53
2022/10/12 05:39:41;;;;;;;6.93;2.80;;;;;;;6.02;100.00;102408.38;2611629;36;20038;-55
2022/10/12 05:42:10;;;;;;;12.35;3.53;;;;;;;6.06;100.00;102415.31;2612859;36;20424;-51
2022/10/12 05:44:38;;;;;;;8.10;3.20;;;;;;;6.05;100.00;102413.56;2611656;36;20026;-54
2022/10/12 05:47:06;;;;;;;8.77;2.65;;;;;;;6.02;100.00;102411.94;2608599;36;20130;-52
2022/10/12 05:49:35;;;;;;;9.85;3.13;;;;;;;6.03;100.00;102410.09;2608432;36;20101;-55
2022/10/12 05:52:03;;;;;;;10.18;3.38;;;;;;;6.04;100.00;102411.84;2609603;36;20228;-58
2022/10/12 05:54:31;;;;;;;10.17;3.70;;;;;;;6.09;100.00;102413.34;2608243;36;20531;-51
2022/10/12 05:57:02;;;;;;;8.18;3.10;;;;;;;6.02;100.00;102421.72;2609209;36;20023;-56
2022/10/12 05:59:31;;;;;;;6.80;3.03;;;;;;;6.11;100.00;102414.19;2608589;36;20042;-52
2022/10/12 06:01:59;;;;;;;9.43;3.70;;;;;;;6.15;100.00;102420.25;2609119;36;20423;-56
2022/10/12 06:04:27;;;;;;;11.73;3.90;;;;;;;6.14;100.00;102413.19;2606362;36;20026;-53
2022/10/12 06:06:55;;;;;;;10.77;2.88;;;;;;;6.12;100.00;102412.34;2608220;36;20041;-50
2022/10/12 06:09:24;;;;;;;8.15;3.47;;;;;;;6.13;100.00;102414.09;2606649;36;20065;-52
2022/10/12 06:11:52;;;;;;;5.45;3.38;;;;;;;6.17;100.00;102413.03;2604406;36;20038;-53
2022/10/12 06:14:23;;;;;;;4.88;2.83;;;;;;;6.29;100.00;102406.25;2608907;36;20035;-54
2022/10/12 06:16:51;;;;;;;6.68;2.90;;;;;;;6.30;100.00;102411.53;2607999;36;20034;-56
2022/10/12 06:19:20;;;;;;;9.30;3.58;;;;;;;6.38;100.00;102400.47;2608503;36;20034;-52
2022/10/12 06:21:48;;;;;;;8.60;2.70;;;;;;;6.43;100.00;102398.47;2609868;36;20431;-54
2022/10/12 06:24:16;;;;;;;12.48;2.60;;;;;;;6.48;100.00;102395.59;2606405;36;20065;-56
2022/10/12 06:26:45;;;;;;;4.78;2.78;;;;;;;6.55;100.00;102386.34;2608243;36;20030;-53
2022/10/12 06:29:13;;;;;;;9.73;3.42;;;;;;;6.64;100.00;102393.91;2610415;31;20038;-52
2022/10/12 06:31:44;;;;;;;10.77;3.50;;;;;;;6.75;100.00;102388.03;2609106;36;20035;-54
2022/10/12 06:34:12;;;;;;;5.15;2.97;;;;;;;6.80;100.00;102385.13;2610480;31;20633;-54
2022/10/12 06:36:40;;;;;;;8.27;3.10;;;;;;;6.88;100.00;102387.47;2611025;31;20029;-54
2022/10/12 06:39:10;;;;;;;7.53;2.60;;;;;;;6.93;100.00;102382.75;2608344;36;20034;-56
2022/10/12 06:41:38;;;;;;;;;;;;;;;6.96;100.00;102386.16;2611021;36;20042;-54
2022/10/12 06:44:07;;;;;;;8.55;3.05;;;;;;;6.99;100.00;102385.13;2610012;36;19950;-51
2022/10/12 06:46:35;;;;;;;5.88;2.88;;;;;;;6.96;100.00;102396.88;2609343;36;20437;-56
2022/10/12 06:49:06;;;;;;;6.45;2.78;;;;;;;6.99;100.00;102395.81;2607173;36;20038;-57
2022/10/12 06:51:34;;;;;;;12.25;3.40;;;;;;;7.01;100.00;102388.59;2608016;36;20039;-55
2022/10/12 06:54:03;;;;;;;11.00;3.20;;;;;;;6.98;100.00;102392.28;2610402;36;20042;-52
2022/10/12 06:56:31;;;;;;;6.68;2.55;;;;;;;7.15;100.00;102390.59;2609316;36;20548;-56
2022/10/12 06:58:59;;;;;;;9.70;3.45;;;;;;;7.15;100.00;102385.22;2604325;36;20104;-53
2022/10/12 07:01:28;;;;;;;7.55;3.10;;;;;;;7.23;100.00;102387.53;2607479;36;20039;-49
2022/10/12 07:03:56;;;;;;;13.07;3.25;;;;;;;7.22;100.00;102386.66;2606020;36;20427;-53
2022/10/12 07:06:27;;;;;;;6.45;2.50;;;;;;;7.09;100.00;102391.75;2609396;36;20073;-55
2022/10/12 07:08:56;;;;;;;8.32;2.75;;;;;;;7.17;100.00;102392.25;2607360;36;20053;-54
2022/10/12 07:11:25;;;;;;;9.82;2.95;;;;;;;7.18;100.00;102391.31;2610882;36;20041;-57
2022/10/12 07:13:53;;;;;;;13.98;3.17;;;;;;;7.23;100.00;102387.53;2609817;36;20035;-54
2022/10/12 07:16:21;;;;;;;8.00;3.00;;;;;;;7.28;100.00;102386.34;2604898;36;20035;-54
2022/10/12 07:18:50;;;;;;;7.65;2.67;;;;;;;7.26;100.00;102382.00;2612721;36;20037;-58
2022/10/12 07:21:18;;;;;;;10.38;3.05;;;;;;;7.34;100.00;102383.34;2604595;36;20038;-53
2022/10/12 07:23:49;;;;;;;10.68;2.65;;;;;;;7.25;100.00;102374.94;2612280;36;20129;-52
2022/10/12 07:26:17;;;;;;;11.00;3.15;;;;;;;7.32;100.00;102385.25;2611709;36;20031;-54
2022/10/12 07:28:46;;;;;;;8.45;3.28;;;;;;;7.28;100.00;102391.72;2611037;31;20031;-53
2022/10/12 07:31:14;;;;;;;11.67;3.37;;;;;;;7.40;100.00;102386.69;2611327;36;20050;-53
2022/10/12 07:33:43;;;;;;;8.75;3.08;;;;;;;7.42;100.00;102387.47;2611420;36;20303;-54
2022/10/12 07:36:12;;;;;;;10.48;3.20;;;;;;;7.56;100.00;102379.59;2610624;36;20061;-55
2022/10/12 07:38:43;;;;;;;14.75;3.33;;;;;;;7.70;100.00;102377.06;2611503;36;20034;-59
2022/10/12 07:41:14;;;;;;;12.05;3.78;;;;;;;7.81;100.00;102383.69;2610645;36;20035;-53
2022/10/12 07:43:43;;;;;;;9.25;3.40;;;;;;;7.87;100.00;102388.72;2611468;36;20023;-55
2022/10/12 07:46:12;;;;;;;14.25;3.78;;;;;;;7.96;100.00;102388.22;2610276;31;20597;-54
2022/10/12 07:48:41;;;;;;;;;;;;;;;8.05;100.00;102385.06;2611427;36;20029;-55
2022/10/12 07:51:11;;;;;;;11.77;3.50;;;;;;;8.13;100.00;102389.16;2610020;36;19949;-55
2022/10/12 07:53:41;;;;;;;17.20;4.78;;;;;;;8.12;100.00;102392.78;2609513;36;20046;-59
2022/10/12 07:56:13;;;;;;;8.82;3.85;;;;;;;8.27;100.00;102381.22;2611974;36;20049;-54
2022/10/12 07:58:48;;;;;;;10.80;4.22;;;;;;;8.45;100.00;102386.53;2611181;36;20449;-55
2022/10/12 08:01:17;;;;;;;8.13;3.92;;;;;;;8.68;100.00;102387.97;2611060;36;20427;-55
2022/10/12 08:03:45;;;;;;;14.77;4.40;;;;;;;8.80;100.00;102391.78;2616194;36;20039;-57
2022/10/12 08:06:16;;;;;;;13.15;4.30;;;;;;;8.92;100.00;102396.44;2616412;36;20435;-56
2022/10/12 08:08:45;;;;;;;15.15;4.40;;;;;;;9.07;100.00;102392.88;2615957;36;20065;-52
2022/10/12 08:11:14;;;;;;;8.63;4.05;;;;;;;9.16;100.00;102395.97;2614777;36;20026;-54
2022/10/12 08:13:45;;;;;;;11.77;4.28;;;;;;;9.45;100.00;102387.09;2614412;36;20034;-52
2022/10/12 08:16:18;;;;;;;11.65;4.70;;;;;;;9.75;100.00;102382.66;2614077;31;20038;-53
2022/10/12 08:18:46;;;;;;;11.75;4.35;;;;;;;9.91;100.00;102387.94;2608935;36;20034;-52
2022/10/12 08:21:16;;;;;;;11.07;4.55;;;;;;;10.28;100.00;102385.66;2608679;36;20054;-56
2022/10/12 08:23:45;;;;;;;17.23;4.70;;;;;;;10.54;100.00;102391.25;2610544;36;20022;-56
2022/10/12 08:26:14;;;;;;;11.73;4.22;;;;;;;10.93;100.00;102381.56;2612224;31;20035;-54
2022/10/12 08:28:46;;;;;;;13.75;4.75;;;;;;;11.08;100.00;102385.91;2613456;36;20074;-55
2022/10/12 08:31:16;;;;;;;11.02;3.78;;;;;;;11.34;100.00;102391.41;2610834;36;20416;-56
2022/10/12 08:33:45;;;;;;;14.45;4.30;;;;;;;11.61;100.00;102390.47;2612455;36;20026;-54
2022/10/12 08:36:14;;;;;;;16.42;5.00;;;;;;;11.60;100.00;102383.34;2606534;31;20428;-54
2022/10/12 08:38:44;;;;;;;13.98;4.47;;;;;;;11.42;100.00;102394.44;2597889;36;20053;-57
2022/10/12 08:41:26;;;;;;;12.18;5.10;;;;;;;11.63;100.00;102391.22;2610448;31;20038;-55
2022/10/12 08:44:10;;;;;;;14.32;5.05;;;;;;;11.69;100.00;102385.41;2610574;36;20039;-52
2022/10/12 08:46:39;;;;;;;13.05;4.65;;;;;;;12.02;100.00;102384.94;2613126;36;20571;-56
2022/10/12 08:49:14;;;;;;;17.08;5.45;;;;;;;12.12;100.00;102382.47;2609648;36;20034;-58
2022/10/12 08:51:48;;;;;;;10.32;4.40;;;;;;;11.99;100.00;102376.19;2610847;36;20026;-56
2022/10/12 08:54:20;;;;;;;10.07;4.60;;;;;;;11.71;100.00;102383.50;2608686;36;20080;-55
2022/10/12 08:56:49;;;;;;;12.02;5.10;;;;;;;12.04;100.00;102383.00;2609502;36;20039;-56
2022/10/12 08:59:20;;;;;;;11.15;4.82;;;;;;;12.30;100.00;102374.03;2609148;36;20674;-55
2022/10/12 09:02:00;;;;;;;11.73;4.20;;;;;;;12.30;100.00;102368.63;2610905;31;20022;-54
2022/10/12 09:04:46;;;;;;;19.27;5.53;;;;;;;12.50;100.00;102375.25;2612864;36;20034;-55
2022/10/12 09:07:21;;;;;;;14.30;5.43;;;;;;;12.68;100.00;102373.06;2612426;31;20023;-55
2022/10/12 09:10:09;;;;;;;14.48;4.95;;;;;;;12.55;100.00;102373.97;2612749;31;20034;-56
2022/10/12 09:12:50;;;;;;;12.70;5.70;;;;;;;12.70;100.00;102374.66;2613002;36;20455;-56
2022/10/12 09:15:25;;;;;;;14.45;6.63;;;;;;;12.96;100.00;102378.16;2614874;36;20034;-56
2022/10/12 09:17:55;;;;;;;22.38;6.20;;;;;;;12.93;100.00;102378.38;2611876;36;20038;-54
2022/10/12 09:20:27;;;;;;;14.00;5.50;;;;;;;13.13;100.00;102379.59;2611923;36;20030;-55
2022/10/12 09:23:00;;;;;;;17.17;5.97;;;;;;;13.15;100.00;102374.94;2612097;36;20645;-57
2022/10/12 09:25:30;;;;;;;13.25;5.88;;;;;;;13.31;100.00;102371.06;2612580;36;20057;-54
2022/10/12 09:28:16;;;;;;;12.90;5.25;;;;;;;13.30;100.00;102375.59;2610651;36;20038;-57
2022/10/12 09:31:08;;;;;;;17.13;6.50;;;;;;;13.27;100.00;102370.44;2611508;31;20558;-57
2022/10/12 09:33:44;;;;;;;13.45;5.63;;;;;;;13.52;100.00;102371.28;2610267;36;20030;-56
2022/10/12 09:36:17;;;;;;;12.48;5.18;;;;;;;13.49;100.00;102376.94;2611488;36;20031;-55
2022/10/12 09:38:45;;;;;;;11.57;5.78;;;;;;;13.58;100.00;102372.66;2612205;36;20540;-57
2022/10/12 09:41:21;;;;;;;15.93;5.82;;;;;;;13.61;100.00;102362.47;2611356;36;20042;-57
2022/10/12 09:43:52;;;;;;;10.52;5.05;;;;;;;13.78;100.00;102362.97;2612373;36;20570;-53
2022/10/12 09:46:30;;;;;;;12.15;4.88;;;;;;;13.74;100.00;102366.94;2609169;36;20022;-57
2022/10/12 09:49:00;;;;;;;14.32;4.50;;;;;;;13.74;100.00;102358.81;2609762;36;20042;-53
2022/10/12 09:51:31;;;;;;;13.02;5.38;;;;;;;13.71;100.00;102353.66;2607738;31;20034;-53
2022/10/12 09:54:02;;;;;;;14.55;5.32;;;;;;;13.81;100.00;102357.34;2606776;36;20042;-57
2022/10/12 09:56:37;;;;;;;16.90;4.75;;;;;;;13.84;100.00;102357.09;2609743;36;20049;-55
2022/10/12 09:59:08;;;;;;;11.30;4.32;;;;;;;13.86;100.00;102343.44;2607753;36;20034;-56
2022/10/12 10:01:40;;;;;;;14.25;4.72;;;;;;;14.02;100.00;102344.81;2606107;36;20022;-52
2022/10/12 10:04:12;;;;;;;12.02;4.03;;;;;;;14.01;100.00;102348.47;2606716;31;20034;-55
2022/10/12 10:06:43;;;;;;;10.98;3.63;;;;;;;14.00;100.00;102337.78;2607166;36;20026;-54
2022/10/12 10:09:31;;;;;;;13.52;3.60;;;;;;;14.26;100.00;102335.69;2608010;36;20054;-52
2022/10/12 10:12:13;;;;;;;8.53;3.20;;;;;;;14.31;100.00;102333.50;2607623;36;20042;-55
2022/10/12 10:14:45;;;;;;;9.75;3.33;;;;;;;14.51;100.00;102331.00;2608195;36;20077;-57
2022/10/12 10:17:26;;;;;;;7.05;2.60;;;;;;;14.60;100.00;102323.94;2609038;36;20034;-54
2022/10/12 10:19:57;;;;;;;8.90;2.60;;;;;;;14.30;100.00;102331.75;2609482;36;20034;-54
2022/10/12 10:22:26;;;;;;;8.38;2.95;;;;;;;14.36;100.00;102330.41;2609570;36;20442;-56
2022/10/12 10:24:56;;;;;;;6.80;2.95;;;;;;;14.49;100.00;102332.97;2608975;36;20061;-56
2022/10/12 10:27:36;;;;;;;6.30;2.85;;;;;;;14.41;100.00;102321.91;2611409;36;20034;-55
2022/10/12 10:30:24;;;;;;;9.05;2.40;;;;;;;14.37;100.00;102311.31;2610320;36;20035;-58
2022/10/12 10:33:10;;;;;;;7.40;1.87;;;;;;;14.52;100.00;102311.06;2612585;36;20034;-54
2022/10/12 10:35:38;;;;;;;7.90;2.30;;;;;;;14.68;100.00;102322.38;2611718;36;20022;-56
2022/10/12 10:38:08;;;;;;;6.60;2.30;;;;;;;14.89;100.00;102322.41;2610668;36;20042;-55
2022/10/12 10:40:36;;;;;;;9.32;1.90;;;;;;;14.34;100.00;102308.84;2612468;36;20034;-50
2022/10/12 10:43:08;;;;;;;4.53;1.70;;;;;;;14.56;100.00;102320.66;2611981;36;20042;-54
2022/10/12 10:45:44;;;;;;;7.78;2.10;;;;;;;14.73;100.00;102316.56;2611986;36;20030;-53
2022/10/12 10:48:19;;;;;;;8.90;1.90;;;;;;;14.96;100.00;102317.34;2611261;36;20439;-52
2022/10/12 10:50:55;;;;;;;9.88;2.42;;;;;;;14.88;100.00;102315.28;2611474;36;20026;-54
2022/10/12 10:53:26;;;;;;;8.30;2.42;;;;;;;14.81;100.00;102307.78;2610445;36;20423;-53
2022/10/12 10:56:01;;;;;;;5.43;2.03;;;;;;;14.87;100.00;102310.00;2609774;36;20023;-51
2022/10/12 10:58:35;;;;;;;8.50;2.92;;;;;;;14.86;100.00;102297.44;2610382;31;20062;-56
2022/10/12 11:01:13;;;;;;;8.55;3.15;;;;;;;14.69;100.00;102298.81;2610712;36;20456;-56
2022/10/12 11:03:51;;;;;;;9.30;2.45;;;;;;;14.79;100.00;102304.34;2609935;36;20065;-55
2022/10/12 11:06:29;;;;;;;7.80;2.50;;;;;;;14.98;100.00;102299.09;2610317;31;20551;-58
2022/10/12 11:09:04;;;;;;;7.13;2.97;;;;;;;15.13;100.00;102302.34;2612621;36;20023;-55
2022/10/12 11:11:36;;;;;;;8.98;2.90;;;;;;;15.19;100.00;102300.97;2611722;36;20097;-53
2022/10/12 11:14:13;;;;;;;9.70;2.97;;;;;;;15.27;100.00;102298.47;2610290;36;20031;-56
2022/10/12 11:16:47;;;;;;;7.72;2.95;;;;;;;15.28;100.00;102299.31;2612509;36;20420;-54
2022/10/12 11:19:39;;;;;;;9.80;2.85;;;;;;;15.34;100.00;102288.81;2609957;36;20034;-55
2022/10/12 11:22:14;;;;;;;12.30;3.13;;;;;;;15.62;100.00;102281.00;2608859;36;20030;-54
2022/10/12 11:24:46;;;;;;;7.88;2.78;;;;;;;15.44;100.00;102288.00;2611580;36;20459;-56
2022/10/12 11:27:20;;;;;;;8.10;2.83;;;;;;;15.49;100.00;102288.47;2611648;36;20252;-54
2022/10/12 11:29:49;;;;;;;9.98;3.00;;;;;;;15.61;100.00;102284.69;2611354;31;20023;-55
2022/10/12 11:32:27;;;;;;;5.80;2.57;;;;;;;15.52;100.00;102270.06;2612980;36;20033;-54
2022/10/12 11:35:02;;;;;;;7.25;2.85;;;;;;;15.89;100.00;102247.84;2612245;31;20299;-54
2022/10/12 11:37:38;;;;;;;6.28;2.70;;;;;;;15.99;100.00;102234.31;2613424;36;20589;-55
2022/10/12 11:40:11;;;;;;;12.85;3.00;;;;;;;15.82;100.00;102219.53;2611850;36;20023;-54
2022/10/12 11:42:42;;;;;;;10.90;3.33;;;;;;;15.80;100.00;102209.78;2612363;36;20409;-55